createdAt,value
2018-02-05T00:00:11.283Z,13.13
2018-02-05T00:02:38.764Z,13.30
2018-02-05T00:05:07.027Z,14.73
2018-02-05T00:07:34.506Z,15.30
2018-02-05T00:10:02.002Z,15.07
2018-02-05T00:12:31.254Z,15.57
2018-02-05T00:14:58.761Z,17.07
2018-02-05T00:17:26.247Z,16.67
2018-02-05T00:19:53.739Z,14.30
2018-02-05T00:22:21.220Z,14.60
2018-02-05T00:24:48.724Z,17.60
2018-02-05T00:27:16.211Z,16.87
2018-02-05T00:29:43.758Z,15.23
2018-02-05T00:32:11.203Z,21.07
2018-02-05T00:34:38.699Z,16.40
2018-02-05T00:37:06.177Z,13.90
2018-02-05T00:39:33.673Z,16.10
2018-02-05T00:42:01.918Z,15.43
2018-02-05T00:44:29.422Z,15.00
2018-02-05T00:46:56.898Z,14.33
2018-02-05T00:49:24.401Z,15.57
2018-02-05T00:51:51.882Z,15.67
2018-02-05T00:54:19.383Z,16.53
2018-02-05T00:56:46.865Z,16.63
2018-02-05T00:59:14.358Z,15.93
2018-02-05T01:01:42.603Z,17.53
2018-02-05T01:04:10.098Z,17.90
2018-02-05T01:06:37.575Z,15.63
2018-02-05T01:09:05.074Z,15.70
2018-02-05T01:11:32.553Z,16.13
2018-02-05T01:14:00.056Z,18.10
2018-02-05T01:16:27.540Z,18.07
2018-02-05T01:18:55.047Z,15.23
2018-02-05T01:21:23.295Z,16.03
2018-02-05T01:23:50.800Z,14.90
2018-02-05T01:26:19.054Z,18.00
2018-02-05T01:28:46.545Z,16.40
2018-02-05T01:31:14.819Z,18.37
2018-02-05T01:33:42.294Z,16.93
2018-02-05T01:36:09.793Z,17.63
2018-02-05T01:38:38.030Z,16.70
2018-02-05T01:41:05.531Z,19.70
2018-02-05T01:43:33.007Z,15.20
2018-02-05T01:46:01.284Z,15.93
2018-02-05T01:48:28.771Z,15.20
2018-02-05T01:50:57.035Z,17.20
2018-02-05T01:53:24.523Z,17.00
2018-02-05T01:55:52.783Z,16.17
2018-02-05T01:58:20.268Z,18.40
2018-02-05T02:00:47.767Z,16.53
2018-02-05T02:03:16.012Z,18.37
2018-02-05T02:05:43.511Z,16.07
2018-02-05T02:08:11.755Z,19.23
2018-02-05T02:10:39.256Z,16.80
2018-02-05T02:13:06.739Z,17.93
2018-02-05T02:15:35.002Z,17.83
2018-02-05T02:18:02.482Z,18.00
2018-02-05T02:20:29.987Z,15.73
2018-02-05T02:22:57.467Z,16.77
2018-02-05T02:25:24.963Z,14.30
2018-02-05T02:27:52.434Z,16.47
2018-02-05T02:30:19.930Z,18.63
2018-02-05T02:32:47.419Z,21.47
2018-02-05T02:35:15.687Z,17.10
2018-02-05T02:37:43.180Z,15.17
2018-02-05T02:40:11.447Z,15.03
2018-02-05T02:42:38.934Z,15.83
2018-02-05T02:45:14.936Z,16.10
2018-02-05T02:47:42.416Z,16.47
2018-02-05T02:50:09.930Z,20.00
2018-02-05T02:52:37.415Z,16.80
2018-02-05T02:55:05.688Z,16.83
2018-02-05T02:57:33.166Z,18.77
2018-02-05T03:00:01.432Z,19.57
2018-02-05T03:02:28.911Z,14.93
2018-02-05T03:04:56.411Z,16.40
2018-02-05T03:07:24.658Z,16.40
2018-02-05T03:09:52.158Z,19.40
2018-02-05T03:12:20.406Z,16.20
2018-02-05T03:14:47.897Z,16.80
2018-02-05T03:17:15.394Z,14.40
2018-02-05T03:19:43.660Z,18.60
2018-02-05T03:22:11.175Z,14.40
2018-02-05T03:24:38.655Z,18.93
2018-02-05T03:27:06.158Z,18.77
2018-02-05T03:29:33.638Z,18.20
2018-02-05T03:32:01.139Z,15.03
2018-02-05T03:34:29.386Z,15.67
2018-02-05T03:36:56.883Z,18.60
2018-02-05T03:39:25.122Z,16.97
2018-02-05T03:41:52.622Z,19.30
2018-02-05T03:44:20.103Z,19.20
2018-02-05T03:46:47.600Z,19.80
2018-02-05T03:49:15.077Z,16.83
2018-02-05T03:51:42.574Z,18.50
2018-02-05T03:54:10.050Z,15.80
2018-02-05T03:56:37.560Z,16.53
2018-02-05T03:59:05.049Z,20.73
2018-02-05T04:01:32.548Z,15.47
2018-02-05T04:04:00.065Z,17.60
2018-02-05T04:06:27.544Z,18.07
2018-02-05T04:08:55.812Z,18.50
2018-02-05T04:11:23.297Z,18.23
2018-02-05T04:13:51.558Z,16.37
2018-02-05T04:16:19.039Z,19.07
2018-02-05T04:18:46.539Z,16.90
2018-02-05T04:21:14.031Z,18.97
2018-02-05T04:23:41.596Z,15.07
2018-02-05T04:26:09.116Z,17.13
2018-02-05T04:28:36.619Z,15.83
2018-02-05T04:31:04.873Z,17.87
2018-02-05T04:33:32.370Z,15.90
2018-02-05T04:36:00.620Z,14.50
2018-02-05T04:38:28.112Z,16.50
2018-02-05T04:40:55.591Z,14.97
2018-02-05T04:43:23.851Z,16.03
2018-02-05T04:45:51.330Z,14.87
2018-02-05T04:48:18.835Z,16.50
2018-02-05T04:50:47.087Z,16.67
2018-02-05T04:53:14.563Z,17.10
2018-02-05T04:55:42.071Z,18.60
2018-02-05T04:58:09.556Z,17.83
2018-02-05T05:00:37.060Z,15.87
2018-02-05T05:03:04.542Z,14.37
2018-02-05T05:05:32.043Z,17.00
2018-02-05T05:08:00.294Z,16.13
2018-02-05T05:10:27.787Z,19.23
2018-02-05T05:12:56.032Z,16.30
2018-02-05T05:15:23.526Z,17.17
2018-02-05T05:17:51.015Z,19.13
2018-02-05T05:20:19.288Z,19.80
2018-02-05T05:22:46.783Z,21.60
2018-02-05T05:25:15.050Z,20.83
2018-02-05T05:27:42.530Z,22.23
2018-02-05T05:30:10.790Z,19.77
2018-02-05T05:32:38.268Z,19.17
2018-02-05T05:35:05.766Z,16.80
2018-02-05T05:37:34.007Z,20.47
2018-02-05T05:40:01.503Z,17.37
2018-02-05T05:42:28.983Z,18.30
2018-02-05T05:44:56.460Z,20.30
2018-02-05T05:47:24.725Z,18.00
2018-02-05T05:49:52.198Z,17.60
2018-02-05T05:52:19.704Z,19.83
2018-02-05T05:54:47.946Z,20.97
2018-02-05T05:57:15.447Z,22.60
2018-02-05T05:59:43.686Z,19.10
2018-02-05T06:02:11.195Z,19.80
2018-02-05T06:04:38.676Z,20.20
2018-02-05T06:07:06.949Z,21.03
2018-02-05T06:09:34.432Z,21.57
2018-02-05T06:12:02.702Z,19.57
2018-02-05T06:14:30.189Z,20.23
2018-02-05T06:16:58.459Z,22.47
2018-02-05T06:19:25.936Z,21.20
2018-02-05T06:21:53.427Z,18.13
2018-02-05T06:24:21.675Z,21.33
2018-02-05T06:26:49.171Z,19.10
2018-02-05T06:29:16.651Z,20.73
2018-02-05T06:31:44.919Z,22.37
2018-02-05T06:34:12.411Z,25.00
2018-02-05T06:36:39.910Z,20.50
2018-02-05T06:39:07.386Z,24.60
2018-02-05T06:41:38.555Z,20.20
2018-02-05T06:44:06.111Z,25.30
2018-02-05T06:46:33.611Z,18.20
2018-02-05T06:49:01.096Z,20.87
2018-02-05T06:54:46.002Z,16.97
2018-02-05T06:57:13.512Z,24.20
2018-02-05T06:59:40.991Z,19.93
2018-02-05T07:02:10.446Z,18.90
2018-02-05T07:04:38.043Z,22.93
2018-02-05T07:09:51.946Z,26.13
2018-02-05T07:12:20.207Z,19.93
2018-02-05T07:14:47.698Z,23.03
2018-02-05T07:17:15.978Z,20.97
2018-02-05T07:19:43.459Z,23.83
2018-02-05T07:22:11.719Z,19.43
2018-02-05T07:24:39.195Z,17.93
2018-02-05T07:27:06.704Z,24.90
2018-02-05T07:29:34.183Z,21.10
2018-02-05T07:32:01.678Z,22.10
2018-02-05T07:34:29.175Z,21.57
2018-02-05T07:36:56.666Z,23.00
2018-02-05T07:39:24.911Z,22.33
2018-02-05T07:41:52.410Z,21.40
2018-02-05T07:44:19.882Z,24.90
2018-02-05T07:46:47.382Z,23.20
2018-02-05T07:49:14.873Z,25.33
2018-02-05T07:51:42.388Z,30.30
2018-02-05T07:54:09.863Z,25.63
2018-02-05T07:56:37.359Z,24.17
2018-02-05T07:59:05.655Z,27.70
2018-02-05T08:01:33.162Z,18.27
2018-02-05T08:04:00.645Z,23.03
2018-02-05T08:06:28.139Z,21.13
2018-02-05T08:08:56.383Z,23.83
2018-02-05T08:11:23.883Z,19.70
2018-02-05T08:13:51.368Z,17.47
2018-02-05T08:16:19.636Z,18.80
2018-02-05T08:18:47.118Z,22.73
2018-02-05T08:21:14.647Z,21.93
2018-02-05T08:23:42.228Z,20.73
2018-02-05T08:26:09.718Z,39.67
2018-02-05T08:28:37.342Z,23.83
2018-02-05T08:31:04.879Z,22.10
2018-02-05T08:33:32.471Z,19.50
2018-02-05T08:35:59.959Z,19.07
2018-02-05T08:38:27.464Z,20.07
2018-02-05T08:40:54.946Z,20.80
2018-02-05T08:43:22.455Z,21.90
2018-02-05T08:45:50.927Z,17.87
2018-02-05T08:48:18.448Z,18.67
2018-02-05T08:50:45.927Z,21.57
2018-02-05T08:53:13.436Z,27.63
2018-02-05T08:55:40.926Z,33.37
2018-02-05T08:58:09.205Z,21.33
2018-02-05T09:00:37.451Z,18.40
2018-02-05T09:03:04.954Z,16.10
2018-02-05T09:05:33.203Z,19.30
2018-02-05T09:08:00.702Z,18.93
2018-02-05T09:10:28.188Z,18.40
2018-02-05T09:12:56.464Z,19.53
2018-02-05T09:15:24.320Z,16.80
2018-02-05T09:17:51.831Z,19.70
2018-02-05T09:20:20.083Z,18.43
2018-02-05T09:22:47.591Z,18.27
2018-02-05T09:25:15.843Z,19.47
2018-02-05T09:27:43.351Z,15.33
2018-02-05T09:30:10.827Z,20.80
2018-02-05T09:32:38.336Z,20.37
2018-02-05T09:35:05.902Z,17.20
2018-02-05T09:37:33.409Z,15.67
2018-02-05T09:40:00.910Z,17.10
2018-02-05T09:42:28.416Z,16.67
2018-02-05T09:44:55.904Z,16.60
2018-02-05T09:47:47.980Z,15.30
2018-02-05T09:50:16.228Z,17.40
2018-02-05T09:52:43.722Z,16.70
2018-02-05T09:55:11.204Z,13.87
2018-02-05T09:57:39.466Z,15.83
2018-02-05T10:00:06.954Z,16.93
2018-02-05T10:02:35.214Z,16.00
2018-02-05T10:05:02.702Z,17.37
2018-02-05T10:07:30.201Z,14.37
2018-02-05T10:09:58.456Z,14.10
2018-02-05T10:12:25.955Z,15.20
2018-02-05T10:14:54.198Z,13.40
2018-02-05T10:17:21.699Z,13.87
2018-02-05T10:19:49.259Z,15.90
2018-02-05T10:22:16.751Z,10.73
2018-02-05T10:24:45.396Z,13.00
2018-02-05T10:27:12.901Z,14.27
2018-02-05T10:29:40.392Z,13.83
2018-02-05T10:32:08.659Z,15.30
2018-02-05T10:34:36.147Z,11.80
2018-02-05T10:37:04.412Z,11.33
2018-02-05T10:39:31.903Z,9.90
2018-02-05T10:41:59.475Z,12.40
2018-02-05T10:44:27.727Z,8.33
2018-02-05T10:46:55.228Z,10.80
2018-02-05T10:49:22.708Z,9.90
2018-02-05T10:51:50.234Z,9.87
2018-02-05T10:54:17.712Z,10.90
2018-02-05T10:56:45.316Z,10.63
2018-02-05T10:59:13.584Z,10.27
2018-02-05T11:01:41.104Z,9.83
2018-02-05T11:04:08.589Z,10.90
2018-02-05T11:06:36.110Z,9.73
2018-02-05T11:09:04.435Z,12.23
2018-02-05T11:11:31.951Z,12.27
2018-02-05T11:13:59.455Z,11.17
2018-02-05T11:16:28.100Z,10.83
2018-02-05T11:18:55.607Z,9.50
2018-02-05T11:21:23.949Z,13.37
2018-02-05T11:23:51.466Z,9.90
2018-02-05T11:26:18.965Z,11.00
2018-02-05T11:28:46.458Z,10.10
2018-02-05T11:31:13.973Z,10.30
2018-02-05T11:33:41.463Z,9.20
2018-02-05T11:36:09.714Z,12.40
2018-02-05T11:38:37.211Z,8.10
2018-02-05T11:41:05.463Z,8.47
2018-02-05T11:43:32.950Z,8.43
2018-02-05T11:46:00.432Z,7.73
2018-02-05T11:48:27.949Z,6.87
2018-02-05T11:50:56.182Z,6.07
2018-02-05T11:53:23.938Z,5.30
2018-02-05T11:55:51.410Z,6.43
2018-02-05T11:58:18.906Z,6.33
2018-02-05T12:00:46.384Z,6.60
2018-02-05T12:03:14.651Z,4.87
2018-02-05T12:05:42.135Z,5.50
2018-02-05T12:08:10.408Z,5.37
2018-02-05T12:10:37.886Z,6.17
2018-02-05T12:13:06.155Z,4.50
2018-02-05T12:15:33.634Z,10.60
2018-02-05T12:18:01.123Z,8.33
2018-02-05T12:20:29.375Z,8.10
2018-02-05T12:22:56.871Z,8.40
2018-02-05T12:25:24.352Z,7.83
2018-02-05T12:27:51.873Z,7.60
2018-02-05T12:30:19.348Z,5.60
2018-02-05T12:32:46.836Z,6.13
2018-02-05T12:35:15.139Z,8.10
2018-02-05T12:37:42.644Z,6.70
2018-02-05T12:40:10.891Z,6.07
2018-02-05T12:42:38.380Z,5.37
2018-02-05T12:45:06.629Z,5.10
2018-02-05T12:47:34.118Z,5.30
2018-02-05T12:50:01.599Z,6.50
2018-02-05T12:52:29.091Z,6.13
2018-02-05T12:54:57.350Z,9.63
2018-02-05T12:57:24.866Z,6.60
2018-02-05T12:59:55.138Z,5.40
2018-02-05T13:05:28.983Z,6.00
2018-02-05T13:07:56.491Z,4.30
2018-02-05T13:10:24.738Z,6.93
2018-02-05T13:12:52.276Z,5.33
2018-02-05T13:15:19.758Z,7.03
2018-02-05T13:17:47.270Z,6.40
2018-02-05T13:20:14.758Z,5.83
2018-02-05T13:22:42.369Z,6.90
2018-02-05T13:25:09.857Z,5.90
2018-02-05T13:27:37.354Z,4.80
2018-02-05T13:30:04.842Z,8.43
2018-02-05T13:32:32.378Z,6.57
2018-02-05T13:34:59.870Z,14.77
2018-02-05T13:37:27.359Z,7.50
2018-02-05T13:39:54.835Z,7.47
2018-02-05T13:42:23.095Z,7.47
2018-02-05T13:44:50.567Z,9.07
2018-02-05T13:47:18.051Z,9.30
2018-02-05T13:49:48.863Z,5.87
2018-02-05T13:52:16.343Z,5.13
2018-02-05T13:54:43.847Z,18.53
2018-02-05T13:57:12.111Z,10.10
2018-02-05T13:59:39.607Z,8.47
2018-02-05T14:02:07.083Z,7.70
2018-02-05T14:04:34.578Z,5.80
2018-02-05T14:07:02.051Z,5.57
2018-02-05T14:09:29.540Z,5.80
2018-02-05T14:11:57.028Z,4.50
2018-02-05T14:14:24.538Z,6.20
2018-02-05T14:16:52.803Z,6.50
2018-02-05T14:19:20.313Z,6.37
2018-02-05T14:21:47.783Z,6.33
2018-02-05T14:24:15.279Z,5.00
2018-02-05T14:26:42.763Z,6.03
2018-02-05T14:29:10.255Z,21.20
2018-02-05T14:31:37.723Z,6.70
2018-02-05T14:34:05.220Z,9.10
2018-02-05T14:36:33.460Z,5.23
2018-02-05T14:39:00.947Z,6.60
2018-02-05T14:41:28.443Z,5.90
2018-02-05T14:43:55.943Z,6.93
2018-02-05T14:46:23.419Z,5.20
2018-02-05T14:48:50.912Z,6.13
2018-02-05T14:51:18.388Z,6.77
2018-02-05T14:53:45.879Z,7.23
2018-02-05T14:56:13.359Z,6.00
2018-02-05T14:58:41.642Z,7.20
2018-02-05T15:01:09.116Z,8.00
2018-02-05T15:03:37.371Z,5.50
2018-02-05T15:06:04.881Z,7.37
2018-02-05T15:08:33.150Z,5.87
2018-02-05T15:11:00.630Z,5.70
2018-02-05T15:13:28.885Z,7.00
2018-02-05T15:15:56.394Z,8.17
2018-02-05T15:18:24.650Z,6.43
2018-02-05T15:20:52.115Z,9.00
2018-02-05T15:23:19.615Z,6.70
2018-02-05T15:25:47.854Z,7.27
2018-02-05T15:28:15.347Z,7.63
2018-02-05T15:30:42.828Z,6.37
2018-02-05T15:33:10.338Z,26.57
2018-02-05T15:35:38.730Z,9.30
2018-02-05T15:38:06.244Z,8.57
2018-02-05T15:40:33.714Z,8.80
2018-02-05T15:43:02.183Z,7.10
2018-02-05T15:45:29.657Z,9.83
2018-02-05T15:47:57.146Z,8.87
2018-02-05T15:50:24.625Z,8.83
2018-02-05T15:52:52.128Z,7.17
2018-02-05T15:55:19.600Z,8.50
2018-02-05T15:57:47.075Z,10.70
2018-02-05T16:00:20.200Z,9.10
2018-02-05T16:02:47.675Z,9.13
2018-02-05T16:05:15.171Z,9.97
2018-02-05T16:07:44.657Z,12.27
2018-02-05T16:10:12.155Z,11.57
2018-02-05T16:12:39.651Z,15.00
2018-02-05T16:15:07.918Z,11.67
2018-02-05T16:17:35.395Z,10.80
2018-02-05T16:20:02.892Z,9.70
2018-02-05T16:22:30.381Z,11.90
2018-02-05T16:24:57.881Z,11.27
2018-02-05T16:27:25.359Z,12.70
2018-02-05T16:29:52.879Z,11.47
2018-02-05T16:32:20.381Z,10.80
2018-02-05T16:34:47.882Z,10.70
2018-02-05T16:37:15.362Z,11.70
2018-02-05T16:39:42.867Z,12.10
2018-02-05T16:42:10.342Z,14.03
2018-02-05T16:44:38.615Z,13.40
2018-02-05T16:47:06.092Z,12.20
2018-02-05T16:49:34.513Z,9.47
2018-02-05T16:52:01.997Z,14.47
2018-02-05T16:54:29.499Z,13.20
2018-02-05T16:56:57.739Z,14.93
2018-02-05T16:59:25.238Z,13.77
2018-02-05T17:01:52.723Z,9.80
2018-02-05T17:04:20.986Z,15.23
2018-02-05T17:06:48.458Z,12.37
2018-02-05T17:09:15.979Z,13.57
2018-02-05T17:11:43.450Z,14.80
2018-02-05T17:14:10.948Z,16.13
2018-02-05T17:16:38.424Z,11.77
2018-02-05T17:19:05.915Z,14.67
2018-02-05T17:21:33.390Z,14.47
2018-02-05T17:24:00.883Z,10.17
2018-02-05T17:26:28.373Z,12.13
2018-02-05T17:28:55.872Z,51.20
2018-02-05T17:31:23.356Z,18.43
2018-02-05T17:33:50.887Z,14.73
2018-02-05T17:36:18.374Z,13.20
2018-02-05T17:38:45.900Z,11.63
2018-02-05T17:41:13.379Z,10.83
2018-02-05T17:43:41.625Z,11.97
2018-02-05T17:46:09.143Z,11.53
2018-02-05T17:48:36.679Z,13.10
2018-02-05T17:51:04.206Z,14.37
2018-02-05T17:53:31.685Z,17.57
2018-02-05T17:55:59.182Z,11.13
2018-02-05T17:58:26.679Z,12.33
2018-02-05T18:00:54.939Z,13.80
2018-02-05T18:03:22.428Z,41.83
2018-02-05T18:05:49.931Z,20.03
2018-02-05T18:08:17.411Z,14.93
2018-02-05T18:10:44.911Z,14.73
2018-02-05T18:13:12.387Z,11.93
2018-02-05T18:15:39.861Z,16.50
2018-02-05T18:18:07.367Z,15.90
2018-02-05T18:20:34.843Z,14.03
2018-02-05T18:23:02.347Z,15.60
2018-02-05T18:25:30.051Z,15.97
2018-02-05T18:27:57.566Z,18.97
2018-02-05T18:30:25.058Z,16.90
2018-02-05T18:32:52.563Z,14.23
2018-02-05T18:35:20.047Z,13.13
2018-02-05T18:37:48.311Z,15.17
2018-02-05T18:40:15.800Z,16.10
2018-02-05T18:42:59.534Z,15.63
2018-02-05T18:45:27.014Z,20.20
2018-02-05T18:47:54.511Z,14.03
2018-02-05T18:50:22.755Z,13.17
2018-02-05T18:52:50.251Z,12.50
2018-02-05T18:55:17.719Z,12.07
2018-02-05T18:57:45.222Z,13.63
2018-02-05T19:00:24.494Z,14.50
2018-02-05T19:02:52.773Z,15.13
2018-02-05T19:05:20.258Z,15.23
2018-02-05T19:07:47.789Z,12.03
2018-02-05T19:10:15.284Z,17.50
2018-02-05T19:12:42.773Z,14.30
2018-02-05T19:15:15.984Z,14.27
2018-02-05T19:17:43.487Z,18.17
2018-02-05T19:20:11.803Z,25.70
2018-02-05T19:22:39.279Z,16.53
2018-02-05T19:25:06.771Z,17.83
2018-02-05T19:27:34.254Z,13.40
2018-02-05T19:30:02.100Z,13.43
2018-02-05T19:32:29.586Z,15.80
2018-02-05T19:37:49.955Z,15.30
2018-02-05T19:40:17.457Z,14.73
2018-02-05T19:42:45.715Z,14.60
2018-02-05T19:45:13.239Z,13.80
2018-02-05T19:47:40.754Z,11.00
2018-02-05T19:50:09.048Z,12.70
2018-02-05T19:52:36.523Z,17.93
2018-02-05T19:55:04.032Z,14.37
2018-02-05T19:57:31.523Z,16.90
2018-02-05T19:59:59.018Z,15.80
2018-02-05T20:02:26.508Z,15.50
2018-02-05T20:04:54.774Z,14.97
2018-02-05T20:07:22.250Z,13.73
2018-02-05T20:09:49.746Z,16.30
2018-02-05T20:12:17.999Z,18.20
2018-02-05T20:14:45.499Z,17.63
2018-02-05T20:17:13.743Z,16.60
2018-02-05T20:19:51.428Z,17.90
2018-02-05T20:22:18.908Z,20.50
2018-02-05T20:24:46.403Z,23.80
2018-02-05T20:27:13.887Z,19.63
2018-02-05T20:29:41.390Z,17.10
2018-02-05T20:32:09.637Z,20.57
2018-02-05T20:34:38.131Z,19.60
2018-02-05T20:37:05.607Z,18.70
2018-02-05T20:39:33.107Z,18.20
2018-02-05T20:42:01.350Z,16.10
2018-02-05T20:44:28.848Z,22.10
2018-02-05T20:46:56.325Z,17.73
2018-02-05T20:49:24.590Z,19.50
2018-02-05T20:51:52.111Z,18.27
2018-02-05T20:54:19.634Z,18.07
2018-02-05T20:56:47.124Z,17.83
2018-02-05T20:59:15.395Z,21.73
2018-02-05T21:01:42.919Z,20.77
2018-02-05T21:04:11.168Z,20.40
2018-02-05T21:06:39.410Z,18.47
2018-02-05T21:09:06.898Z,18.50
2018-02-05T21:11:34.387Z,20.07
2018-02-05T21:14:01.887Z,20.53
2018-02-05T21:16:29.369Z,18.67
2018-02-05T21:18:56.865Z,18.77
2018-02-05T21:21:24.351Z,29.40
2018-02-05T21:23:51.856Z,47.60
2018-02-05T21:26:20.100Z,24.60
2018-02-05T21:28:47.591Z,17.97
2018-02-05T21:31:15.067Z,20.50
2018-02-05T21:33:42.559Z,22.37
2018-02-05T21:36:10.808Z,16.17
2018-02-05T21:38:38.306Z,21.20
2018-02-05T21:41:06.555Z,19.57
2018-02-05T21:43:34.055Z,18.07
2018-02-05T21:46:01.537Z,20.33
2018-02-05T21:48:29.799Z,20.33
2018-02-05T21:50:57.287Z,17.20
2018-02-05T21:53:24.763Z,21.23
2018-02-05T21:55:53.027Z,24.60
2018-02-05T21:58:20.501Z,85.40
2018-02-05T22:00:47.998Z,29.87
2018-02-05T22:03:16.238Z,23.47
2018-02-05T22:05:43.738Z,19.37
2018-02-05T22:08:11.216Z,18.00
2018-02-05T22:10:39.481Z,15.90
2018-02-05T22:13:06.962Z,17.97
2018-02-05T22:15:34.462Z,20.43
2018-02-05T22:18:01.931Z,19.33
2018-02-05T22:20:29.437Z,29.57
2018-02-05T22:22:56.926Z,21.03
2018-02-05T22:25:24.434Z,25.40
2018-02-05T22:27:52.685Z,20.43
2018-02-05T22:30:20.178Z,20.00
2018-02-05T22:32:48.427Z,28.40
2018-02-05T22:35:15.935Z,22.20
2018-02-05T22:37:43.411Z,20.40
2018-02-05T22:40:11.675Z,24.23
2018-02-05T22:42:39.153Z,24.57
2018-02-05T22:45:06.650Z,20.33
2018-02-05T22:47:34.139Z,21.63
2018-02-05T22:50:01.639Z,20.80
2018-02-05T22:52:29.123Z,25.53
2018-02-05T22:54:56.627Z,24.07
2018-02-05T22:57:24.868Z,22.30
2018-02-05T22:59:52.363Z,23.10
2018-02-05T23:02:19.851Z,22.00
2018-02-05T23:04:48.118Z,22.10
2018-02-05T23:07:15.595Z,25.40
2018-02-05T23:09:43.103Z,30.40
2018-02-05T23:12:10.584Z,20.90
2018-02-05T23:14:38.087Z,22.20
2018-02-05T23:17:05.571Z,19.63
2018-02-05T23:19:33.065Z,25.50
2018-02-05T23:22:01.320Z,22.47
2018-02-05T23:24:28.810Z,20.33
2018-02-05T23:26:57.054Z,22.87
2018-02-05T23:29:24.551Z,21.03
2018-02-05T23:31:52.025Z,20.53
2018-02-05T23:34:19.518Z,22.67
2018-02-05T23:36:47.762Z,27.57
2018-02-05T23:39:15.260Z,22.40
2018-02-05T23:41:42.739Z,20.03
2018-02-05T23:44:11.007Z,19.90
2018-02-05T23:46:38.493Z,25.00
2018-02-05T23:49:06.765Z,21.93
2018-02-05T23:51:34.235Z,27.20
2018-02-05T23:54:01.731Z,21.30
2018-02-05T23:56:29.971Z,21.20
2018-02-05T23:58:57.474Z,21.90
